Time;durP1;ratioP1;P1;durP2;ratioP2;P2;SDS_P1;SDS_P2;PMS_P1;PMS_P2;Temp;Humidity;BMP_temperature;BMP_pressure;BME280_temperature;BME280_humidity;BME280_pressure;Samples;Min_cycle;Max_cycle;Signal;HPM_P1;HPM_P2
2023/06/28 00:01:00;;;;;;;;;;;;;;;-147.27;100.00;65176.34;5140622;27;19922;-57
2023/06/28 00:03:26;;;;;;;;;;;;;;;-147.27;100.00;65176.34;5144809;27;19915;-57
2023/06/28 00:05:52;;;;;;;;;;;;;;;-147.27;100.00;65176.34;5142759;27;19916;-55
2023/06/28 00:08:17;;;;;;;;;;;;;;;-147.27;100.00;65176.34;5139060;27;19923;-52
2023/06/28 00:10:43;;;;;;;;;;;;;;;-147.27;100.00;65176.34;5140437;27;19926;-55
2023/06/28 00:13:08;;;;;;;;;;;;;;;-147.27;100.00;65176.34;5135532;28;19927;-53
2023/06/28 00:15:34;;;;;;;;;;;;;;;-147.27;100.00;65176.34;5140541;27;19943;-53
2023/06/28 00:18:02;;;;;;;;;;;;;;;-147.27;100.00;65176.34;5140380;27;19947;-55
2023/06/28 00:20:28;;;;;;;;;;;;;;;-147.27;100.00;65176.34;5138570;27;19941;-58
2023/06/28 00:22:54;;;;;;;;;;;;;;;-147.27;100.00;65176.34;5137387;27;19923;-56
2023/06/28 00:25:20;;;;;;;;;;;;;;;-147.27;100.00;65176.34;5141203;27;19950;-58
2023/06/28 00:27:45;;;;;;;;;;;;;;;-147.27;100.00;65176.34;5138697;27;19915;-51
2023/06/28 00:30:11;;;;;;;;;;;;;;;-147.27;100.00;65176.34;5140315;27;19954;-55
2023/06/28 00:32:37;;;;;;;;;;;;;;;-147.27;100.00;65176.34;5140825;27;19930;-57
2023/06/28 00:35:02;;;;;;;;;;;;;;;-147.27;100.00;65176.34;5125161;27;19986;-57
2023/06/28 00:37:28;;;;;;;;;;;;;;;-147.27;100.00;65176.34;5138482;27;19920;-57
2023/06/28 00:39:54;;;;;;;;;;;;;;;-147.27;100.00;65176.34;5141708;27;19997;-56
2023/06/28 00:42:20;;;;;;;;;;;;;;;-147.27;100.00;65176.34;5142032;27;19915;-53
2023/06/28 00:44:46;;;;;;;;;;;;;;;-147.27;100.00;65176.34;5143686;27;19947;-56
2023/06/28 00:47:12;;;;;;;;;;;;;;;-147.27;100.00;65176.34;5142768;27;19916;-54
2023/06/28 00:49:38;;;;;;;;;;;;;;;-147.27;100.00;65176.34;5136529;27;20043;-51
2023/06/28 00:52:04;;;;;;;;;;;;;;;-147.27;100.00;65176.34;5141492;27;19965;-54
2023/06/28 00:54:30;;;;;;;;;;;;;;;-147.27;100.00;65176.34;5140582;27;19983;-57
2023/06/28 00:56:59;;;;;;;;;;;;;;;-147.27;100.00;65176.34;5141432;27;19958;-55
2023/06/28 00:59:24;;;;;;;;;;;;;;;-147.27;100.00;65176.34;5141402;27;19916;-58
2023/06/28 01:01:49;;;;;;;;;;;;;;;-147.27;100.00;65176.34;5141592;27;19987;-57
2023/06/28 01:04:15;;;;;;;;;;;;;;;-147.27;100.00;65176.34;5140760;27;19951;-56
2023/06/28 01:06:42;;;;;;;;;;;;;;;-147.27;100.00;65176.34;5140903;27;19923;-55
2023/06/28 01:09:08;;;;;;;;;;;;;;;-147.27;100.00;65176.34;5142093;27;19941;-56
2023/06/28 01:11:34;;;;;;;;;;;;;;;-147.27;100.00;65176.34;5142644;27;19924;-56
2023/06/28 01:14:01;;;;;;;;;;;;;;;-147.27;100.00;65176.34;5141258;27;19920;-56
2023/06/28 01:16:26;;;;;;;;;;;;;;;-147.27;100.00;65176.34;5144348;27;19915;-57
2023/06/28 01:18:52;;;;;;;;;;;;;;;-147.27;100.00;65176.34;5145255;27;20011;-58
2023/06/28 01:21:17;;;;;;;;;;;;;;;-147.27;100.00;65176.34;5142252;27;19920;-55
2023/06/28 01:23:48;;;;;;;;;;;;;;;-147.27;100.00;65176.34;5140635;27;20001;-57
2023/06/28 01:26:16;;;;;;;;;;;;;;;-147.27;100.00;65176.34;5172677;27;19918;-54
2023/06/28 01:28:42;;;;;;;;;;;;;;;-147.27;100.00;65176.34;5140597;28;19922;-57
2023/06/28 01:31:07;;;;;;;;;;;;;;;-147.27;100.00;65176.34;5134290;28;19964;-58
2023/06/28 01:33:32;;;;;;;;;;;;;;;-147.27;100.00;65176.34;5134413;28;19931;-56
2023/06/28 01:35:58;;;;;;;;;;;;;;;-147.27;100.00;65176.34;5137990;28;19918;-55
2023/06/28 01:38:24;;;;;;;;;;;;;;;-147.27;100.00;65176.34;5133644;28;19915;-56
2023/06/28 01:40:51;;;;;;;;;;;;;;;-147.27;100.00;65176.34;5139079;28;19923;-56
2023/06/28 01:43:16;;;;;;;;;;;;;;;-147.27;100.00;65176.34;5133767;28;19961;-56
2023/06/28 01:45:42;;;;;;;;;;;;;;;-147.27;100.00;65176.34;5135988;28;19915;-51
2023/06/28 01:48:08;;;;;;;;;;;;;;;-147.27;100.00;65176.34;5137149;28;19915;-50
2023/06/28 01:50:33;;;;;;;;;;;;;;;-147.27;100.00;65176.34;5137132;28;19928;-54
2023/06/28 01:53:00;;;;;;;;;;;;;;;-147.27;100.00;65176.34;5134086;28;19915;-56
2023/06/28 01:55:26;;;;;;;;;;;;;;;-147.27;100.00;65176.34;5136187;28;19915;-57
2023/06/28 01:57:52;;;;;;;;;;;;;;;-147.27;100.00;65176.34;5137153;28;19916;-56
2023/06/28 02:00:17;;;;;;;;;;;;;;;-147.27;100.00;65176.34;5139619;28;19983;-56
2023/06/28 02:02:50;;;;;;;;;;;;;;;-147.27;100.00;65176.34;5134595;28;19916;-54
2023/06/28 02:05:16;;;;;;;;;;;;;;;-147.27;100.00;65176.34;5136298;28;19916;-57
2023/06/28 02:07:42;;;;;;;;;;;;;;;-147.27;100.00;65176.34;5143082;27;19923;-57
2023/06/28 02:10:09;;;;;;;;;;;;;;;-147.27;100.00;65176.34;5142811;27;19915;-57
2023/06/28 02:12:34;;;;;;;;;;;;;;;-147.27;100.00;65176.34;5139770;27;19923;-56
2023/06/28 02:15:03;;;;;;;;;;;;;;;-147.27;100.00;65176.34;5137368;27;19919;-56
2023/06/28 02:17:30;;;;;;;;;;;;;;;-147.27;100.00;65176.34;5139384;27;19915;-57
2023/06/28 02:19:56;;;;;;;;;;;;;;;-147.27;100.00;65176.34;5138062;27;19919;-54
2023/06/28 02:22:21;;;;;;;;;;;;;;;-147.27;100.00;65176.34;5141685;27;19927;-57
2023/06/28 02:24:47;;;;;;;;;;;;;;;-147.27;100.00;65176.34;5120753;28;19915;-56
2023/06/28 02:27:14;;;;;;;;;;;;;;;-147.27;100.00;65176.34;5138632;27;19927;-55
2023/06/28 02:29:39;;;;;;;;;;;;;;;-147.27;100.00;65176.34;5142527;27;19923;-56
2023/06/28 02:32:05;;;;;;;;;;;;;;;-147.27;100.00;65176.34;5141503;27;19939;-57
2023/06/28 02:34:30;;;;;;;;;;;;;;;-147.27;100.00;65176.34;5135777;28;19931;-53
2023/06/28 02:36:56;;;;;;;;;;;;;;;-147.27;100.00;65176.34;5135685;28;19916;-57
2023/06/28 02:39:21;;;;;;;;;;;;;;;-147.27;100.00;65176.34;5136923;28;19922;-56
2023/06/28 02:41:47;;;;;;;;;;;;;;;-147.27;100.00;65176.34;5140383;27;19920;-54
2023/06/28 02:44:13;;;;;;;;;;;;;;;-147.27;100.00;65176.34;5143863;27;19915;-59
2023/06/28 02:46:39;;;;;;;;;;;;;;;-147.27;100.00;65176.34;5136619;28;19920;-57
2023/06/28 02:49:06;;;;;;;;;;;;;;;-147.27;100.00;65176.34;5143677;27;19915;-58
2023/06/28 02:51:32;;;;;;;;;;;;;;;-147.27;100.00;65176.34;5137030;28;19920;-57
2023/06/28 02:54:01;;;;;;;;;;;;;;;-147.27;100.00;65176.34;5145433;27;19916;-58
2023/06/28 02:56:27;;;;;;;;;;;;;;;-147.27;100.00;65176.34;5136575;28;19926;-58
2023/06/28 02:59:16;;;;;;;;;;;;;;;-147.27;100.00;65176.34;5134979;28;19915;-55
2023/06/28 03:01:43;;;;;;;;;;;;;;;-147.27;100.00;65176.34;5141034;27;19923;-54
2023/06/28 03:04:08;;;;;;;;;;;;;;;-147.27;100.00;65176.34;5141130;27;19916;-55
2023/06/28 03:06:35;;;;;;;;;;;;;;;-147.27;100.00;65176.34;5136569;27;19922;-55
2023/06/28 03:09:00;;;;;;;;;;;;;;;-147.27;100.00;65176.34;5135879;27;19916;-58
2023/06/28 03:11:25;;;;;;;;;;;;;;;-147.27;100.00;65176.34;5137533;27;19931;-56
2023/06/28 03:13:51;;;;;;;;;;;;;;;-147.27;100.00;65176.34;5139170;27;19935;-58
2023/06/28 03:16:16;;;;;;;;;;;;;;;-147.27;100.00;65176.34;5138799;27;19920;-55
2023/06/28 03:18:42;;;;;;;;;;;;;;;-147.27;100.00;65176.34;5138851;27;19915;-54
2023/06/28 03:21:10;;;;;;;;;;;;;;;-147.27;100.00;65176.34;5140150;27;21312;-57
2023/06/28 03:23:36;;;;;;;;;;;;;;;-147.27;100.00;65176.34;5141330;27;19955;-54
2023/06/28 03:26:01;;;;;;;;;;;;;;;-147.27;100.00;65176.34;5137487;27;19919;-55
2023/06/28 03:28:28;;;;;;;;;;;;;;;-147.27;100.00;65176.34;5140589;27;19927;-55
2023/06/28 03:30:54;;;;;;;;;;;;;;;-147.27;100.00;65176.34;5141481;27;19920;-55
2023/06/28 03:33:19;;;;;;;;;;;;;;;-147.27;100.00;65176.34;5138401;27;19919;-54
2023/06/28 03:35:45;;;;;;;;;;;;;;;-147.27;100.00;65176.34;5141055;27;21578;-58
2023/06/28 03:38:10;;;;;;;;;;;;;;;-147.27;100.00;65176.34;5143434;27;19937;-56
2023/06/28 03:40:39;;;;;;;;;;;;;;;-147.27;100.00;65176.34;5140623;27;19916;-57
2023/06/28 03:43:05;;;;;;;;;;;;;;;-147.27;100.00;65176.34;5141868;27;19938;-56
2023/06/28 03:45:33;;;;;;;;;;;;;;;-147.27;100.00;65176.34;5141951;27;19919;-54
2023/06/28 03:47:59;;;;;;;;;;;;;;;-147.27;100.00;65176.34;5141660;27;19915;-58
2023/06/28 03:53:15;;;;;;;;;;;;;;;-147.27;100.00;65176.34;5066321;28;19967;-54
2023/06/28 03:55:41;;;;;;;;;;;;;;;-147.27;100.00;65176.34;5092070;28;19940;-57
2023/06/28 03:58:07;;;;;;;;;;;;;;;-147.27;100.00;65176.34;5058849;28;19921;-57
2023/06/28 04:00:33;;;;;;;;;;;;;;;-147.27;100.00;65176.34;5076619;28;19932;-56
2023/06/28 04:02:58;;;;;;;;;;;;;;;-147.27;100.00;65176.34;5066084;28;19921;-57
2023/06/28 04:05:25;;;;;;;;;;;;;;;-147.27;100.00;65176.34;5056122;28;19987;-56
2023/06/28 04:07:57;;;;;;;;;;;;;;;-147.27;100.00;65176.34;5056113;28;19916;-55
2023/06/28 04:10:23;;;;;;;;;;;;;;;-147.27;100.00;65176.34;5055968;28;19925;-58
2023/06/28 04:12:49;;;;;;;;;;;;;;;-147.27;100.00;65176.34;5091526;28;19971;-54
2023/06/28 04:15:15;;;;;;;;;;;;;;;-147.27;100.00;65176.34;5075906;28;19921;-56
2023/06/28 04:17:41;;;;;;;;;;;;;;;-147.27;100.00;65176.34;5076004;28;19921;-58
2023/06/28 04:20:07;;;;;;;;;;;;;;;-147.27;100.00;65176.34;5075995;28;19920;-56
2023/06/28 04:22:32;;;;;;;;;;;;;;;-147.27;100.00;65176.34;5070695;28;19992;-58
2023/06/28 04:24:58;;;;;;;;;;;;;;;-147.27;100.00;65176.34;5088182;28;19921;-58
2023/06/28 04:27:23;;;;;;;;;;;;;;;-147.27;100.00;65176.34;5055376;28;19917;-58
2023/06/28 04:29:49;;;;;;;;;;;;;;;-147.27;100.00;65176.34;5058268;28;19929;-57
2023/06/28 04:32:25;;;;;;;;;;;;;;;-147.27;100.00;65176.34;5058073;28;19921;-54
2023/06/28 04:34:52;;;;;;;;;;;;;;;-147.27;100.00;65176.34;5075746;28;19932;-56
2023/06/28 04:37:19;;;;;;;;;;;;;;;-147.27;100.00;65176.34;5075672;28;19928;-59
2023/06/28 04:39:45;;;;;;;;;;;;;;;-147.27;100.00;65176.34;5068266;28;19980;-57
2023/06/28 04:42:14;;;;;;;;;;;;;;;-147.27;100.00;65176.34;5056963;28;19931;-58
2023/06/28 04:44:41;;;;;;;;;;;;;;;-147.27;100.00;65176.34;5075657;28;19943;-57
2023/06/28 04:47:07;;;;;;;;;;;;;;;-147.27;100.00;65176.34;5075460;28;19931;-58
2023/06/28 04:49:34;;;;;;;;;;;;;;;-147.27;100.00;65176.34;5070078;28;19957;-58
2023/06/28 04:52:00;;;;;;;;;;;;;;;-147.27;100.00;65176.34;5087577;28;19944;-56
2023/06/28 04:54:26;;;;;;;;;;;;;;;-147.27;100.00;65176.34;5075022;28;19980;-57
2023/06/28 04:56:52;;;;;;;;;;;;;;;-147.27;100.00;65176.34;5075819;28;19997;-53
2023/06/28 04:59:17;;;;;;;;;;;;;;;-147.27;100.00;65176.34;5071014;28;19936;-56
2023/06/28 05:01:43;;;;;;;;;;;;;;;-147.27;100.00;65176.34;5055487;28;19925;-58
2023/06/28 05:04:08;;;;;;;;;;;;;;;-147.27;100.00;65176.34;5053797;28;19984;-56
2023/06/28 05:06:35;;;;;;;;;;;;;;;-147.27;100.00;65176.34;5055572;28;19921;-56
2023/06/28 05:09:04;;;;;;;;;;;;;;;-147.27;100.00;65176.34;5055560;28;19940;-55
2023/06/28 05:11:29;;;;;;;;;;;;;;;-147.27;100.00;65176.34;5055487;28;19913;-60
2023/06/28 05:13:55;;;;;;;;;;;;;;;-147.27;100.00;65176.34;5088120;28;19950;-59
2023/06/28 05:16:20;;;;;;;;;;;;;;;-147.27;100.00;65176.34;5055617;28;19935;-57
2023/06/28 05:18:46;;;;;;;;;;;;;;;-147.27;100.00;65176.34;5055459;28;19917;-59
2023/06/28 05:21:11;;;;;;;;;;;;;;;-147.27;100.00;65176.34;5055487;28;19980;-56
2023/06/28 05:23:37;;;;;;;;;;;;;;;-147.27;100.00;65176.34;5067332;28;19916;-59
2023/06/28 05:26:03;;;;;;;;;;;;;;;-147.27;100.00;65176.34;5075212;28;19920;-60
2023/06/28 05:28:28;;;;;;;;;;;;;;;-147.27;100.00;65176.34;5074444;28;19924;-58
2023/06/28 05:30:54;;;;;;;;;;;;;;;-147.27;100.00;65176.34;5075094;28;19940;-60
2023/06/28 05:33:19;;;;;;;;;;;;;;;-147.27;100.00;65176.34;5066932;28;19921;-58
2023/06/28 05:35:45;;;;;;;;;;;;;;;-147.27;100.00;65176.34;5052334;28;19917;-60
2023/06/28 05:38:11;;;;;;;;;;;;;;;-147.27;100.00;65176.34;5054556;28;19951;-60
2023/06/28 05:40:36;;;;;;;;;;;;;;;-147.27;100.00;65176.34;5053567;28;19924;-60
2023/06/28 05:43:02;;;;;;;;;;;;;;;-147.27;100.00;65176.34;5058645;28;19984;-61
2023/06/28 05:45:28;;;;;;;;;;;;;;;-147.27;100.00;65176.34;5056424;28;19933;-60
2023/06/28 05:47:54;;;;;;;;;;;;;;;-147.27;100.00;65176.34;5054176;28;19985;-60
2023/06/28 05:50:21;;;;;;;;;;;;;;;-147.27;100.00;65176.34;5054403;28;19917;-58
2023/06/28 05:52:48;;;;;;;;;;;;;;;-147.27;100.00;65176.34;5054248;28;19921;-60
2023/06/28 05:55:14;;;;;;;;;;;;;;;-147.27;100.00;65176.34;5054227;28;19989;-59
2023/06/28 05:57:40;;;;;;;;;;;;;;;-147.27;100.00;65176.34;5054912;28;19917;-57
2023/06/28 06:00:07;;;;;;;;;;;;;;;-147.27;100.00;65176.34;5054636;28;19941;-57
2023/06/28 06:02:33;;;;;;;;;;;;;;;-147.27;100.00;65176.34;5055025;28;19940;-58
2023/06/28 06:04:59;;;;;;;;;;;;;;;-147.27;100.00;65176.34;5058571;28;19928;-57
2023/06/28 06:07:25;;;;;;;;;;;;;;;-147.27;100.00;65176.34;5054469;28;19948;-60
2023/06/28 06:09:53;;;;;;;;;;;;;;;-147.27;100.00;65176.34;5054561;28;19917;-57
2023/06/28 06:12:18;;;;;;;;;;;;;;;-147.27;100.00;65176.34;5053777;28;19924;-59
2023/06/28 06:14:44;;;;;;;;;;;;;;;-147.27;100.00;65176.34;5086469;28;19922;-60
2023/06/28 06:17:09;;;;;;;;;;;;;;;-147.27;100.00;65176.34;5054622;28;19988;-59
2023/06/28 06:19:35;;;;;;;;;;;;;;;-147.27;100.00;65176.34;5054068;28;19917;-59
2023/06/28 06:22:02;;;;;;;;;;;;;;;-147.27;100.00;65176.34;5054106;28;19917;-60
2023/06/28 06:24:27;;;;;;;;;;;;;;;-147.27;100.00;65176.34;5054033;28;19929;-60
2023/06/28 06:26:53;;;;;;;;;;;;;;;-147.27;100.00;65176.34;5053397;28;19921;-59
2023/06/28 06:29:18;;;;;;;;;;;;;;;-147.27;100.00;65176.34;5054635;28;19917;-60
2023/06/28 06:31:44;;;;;;;;;;;;;;;-147.27;100.00;65176.34;5053835;28;19933;-57
2023/06/28 06:34:09;;;;;;;;;;;;;;;-147.27;100.00;65176.34;5056771;28;19948;-60
2023/06/28 06:36:36;;;;;;;;;;;;;;;-147.27;100.00;65176.34;5052804;28;19940;-64
2023/06/28 06:39:02;;;;;;;;;;;;;;;-147.27;100.00;65176.34;5060505;28;19943;-56
2023/06/28 06:41:27;;;;;;;;;;;;;;;-147.27;100.00;65176.34;5059130;28;19913;-58
2023/06/28 06:43:52;;;;;;;;;;;;;;;-147.27;100.00;65176.34;5054187;28;19920;-58
2023/06/28 06:46:21;;;;;;;;;;;;;;;-147.27;100.00;65176.34;5057671;28;19917;-59
2023/06/28 06:48:47;;;;;;;;;;;;;;;-147.27;100.00;65176.34;5058939;28;19917;-56
2023/06/28 06:51:12;;;;;;;;;;;;;;;-147.27;100.00;65176.34;5054245;28;19917;-59
2023/06/28 06:53:38;;;;;;;;;;;;;;;-147.27;100.00;65176.34;5059630;28;19955;-58
2023/06/28 06:56:04;;;;;;;;;;;;;;;-147.27;100.00;65176.34;5052529;28;19924;-57
2023/06/28 06:58:30;;;;;;;;;;;;;;;-147.27;100.00;65176.34;5058550;28;19917;-57
2023/06/28 07:00:55;;;;;;;;;;;;;;;-147.27;100.00;65176.34;5063619;28;20055;-57
2023/06/28 07:03:21;;;;;;;;;;;;;;;-147.27;100.00;65176.34;5057286;28;19917;-57
2023/06/28 07:05:46;;;;;;;;;;;;;;;-147.27;100.00;65176.34;5057233;28;19980;-59
2023/06/28 07:08:12;;;;;;;;;;;;;;;-147.27;100.00;65176.34;5056948;28;19940;-58
2023/06/28 07:10:37;;;;;;;;;;;;;;;-147.27;100.00;65176.34;5060916;28;19928;-60
2023/06/28 07:13:03;;;;;;;;;;;;;;;-147.27;100.00;65176.34;5057018;28;19925;-58
2023/06/28 07:15:28;;;;;;;;;;;;;;;-147.27;100.00;65176.34;5057155;28;19921;-56
2023/06/28 07:17:54;;;;;;;;;;;;;;;-147.27;100.00;65176.34;5058261;28;20023;-54
2023/06/28 07:20:20;;;;;;;;;;;;;;;-147.27;100.00;65176.34;5057117;28;19921;-55
2023/06/28 07:22:45;;;;;;;;;;;;;;;-147.27;100.00;65176.34;5057205;28;19989;-58
2023/06/28 07:25:11;;;;;;;;;;;;;;;-147.27;100.00;65176.34;5057207;28;19921;-55
2023/06/28 07:27:37;;;;;;;;;;;;;;;-147.27;100.00;65176.34;5066006;28;20019;-58
2023/06/28 07:30:02;;;;;;;;;;;;;;;-147.27;100.00;65176.34;5057275;28;19945;-57
2023/06/28 07:32:27;;;;;;;;;;;;;;;-147.27;100.00;65176.34;5056891;28;19928;-59
2023/06/28 07:34:56;;;;;;;;;;;;;;;-147.27;100.00;65176.34;5072767;28;19971;-58
2023/06/28 07:37:22;;;;;;;;;;;;;;;-147.27;100.00;65176.34;5055527;28;19921;-56
2023/06/28 07:39:48;;;;;;;;;;;;;;;-147.27;100.00;65176.34;5061443;28;19924;-57
2023/06/28 07:42:14;;;;;;;;;;;;;;;-147.27;100.00;65176.34;5044445;28;19925;-55
2023/06/28 07:44:39;;;;;;;;;;;;;;;-147.27;100.00;65176.34;5067713;28;19912;-56
2023/06/28 07:47:05;;;;;;;;;;;;;;;-147.27;100.00;65176.34;5060699;28;19981;-53
2023/06/28 07:49:30;;;;;;;;;;;;;;;-147.27;100.00;65176.34;5062319;28;19917;-54
2023/06/28 07:51:56;;;;;;;;;;;;;;;-147.27;100.00;65176.34;5056344;28;19953;-56
2023/06/28 07:54:23;;;;;;;;;;;;;;;-147.27;100.00;65176.34;5056454;28;20001;-56
2023/06/28 07:56:49;;;;;;;;;;;;;;;-147.27;100.00;65176.34;5056436;28;19921;-57
2023/06/28 07:59:15;;;;;;;;;;;;;;;-147.27;100.00;65176.34;5059376;28;19925;-56
2023/06/28 08:01:41;;;;;;;;;;;;;;;-147.27;100.00;65176.34;5056261;28;19917;-57
2023/06/28 08:04:06;;;;;;;;;;;;;;;-147.27;100.00;65176.34;5054014;28;19913;-58
2023/06/28 08:06:32;;;;;;;;;;;;;;;-147.27;100.00;65176.34;5049292;28;19980;-57
2023/06/28 08:08:58;;;;;;;;;;;;;;;-147.27;100.00;65176.34;5056278;28;19913;-57
2023/06/28 08:11:23;;;;;;;;;;;;;;;-147.27;100.00;65176.34;5053404;28;19925;-57
2023/06/28 08:13:50;;;;;;;;;;;;;;;-147.27;100.00;65176.34;5059360;28;19940;-58
2023/06/28 08:16:16;;;;;;;;;;;;;;;-147.27;100.00;65176.34;5058087;28;19955;-59
2023/06/28 08:18:42;;;;;;;;;;;;;;;-147.27;100.00;65176.34;5056287;28;19917;-57
2023/06/28 08:21:07;;;;;;;;;;;;;;;-147.27;100.00;65176.34;5055861;28;20410;-57
2023/06/28 08:23:33;;;;;;;;;;;;;;;-147.27;100.00;65176.34;5056109;28;19931;-55
2023/06/28 08:25:58;;;;;;;;;;;;;;;-147.27;100.00;65176.34;5055664;28;19923;-56
2023/06/28 08:28:24;;;;;;;;;;;;;;;-147.27;100.00;65176.34;5055801;28;20287;-58
2023/06/28 08:30:49;;;;;;;;;;;;;;;-147.27;100.00;65176.34;5055913;28;19921;-58
2023/06/28 08:33:15;;;;;;;;;;;;;;;-147.27;100.00;65176.34;5055273;28;20012;-57
2023/06/28 08:35:40;;;;;;;;;;;;;;;-147.27;100.00;65176.34;5055462;28;19917;-57
2023/06/28 08:38:06;;;;;;;;;;;;;;;-147.27;100.00;65176.34;5055645;28;19921;-58
2023/06/28 08:40:31;;;;;;;;;;;;;;;-147.27;100.00;65176.34;5057923;28;19924;-54
2023/06/28 08:43:03;;;;;;;;;;;;;;;-147.27;100.00;65176.34;5055647;28;20407;-53
2023/06/28 08:45:32;;;;;;;;;;;;;;;-147.27;100.00;65176.34;5052385;28;19921;-54
2023/06/28 08:47:58;;;;;;;;;;;;;;;-147.27;100.00;65176.34;5052267;28;20012;-55
2023/06/28 08:50:24;;;;;;;;;;;;;;;-147.27;100.00;65176.34;5055949;28;19920;-54
2023/06/28 08:52:50;;;;;;;;;;;;;;;-147.27;100.00;65176.34;5055365;28;19917;-58
2023/06/28 08:55:15;;;;;;;;;;;;;;;-147.27;100.00;65176.34;5055364;28;19916;-52
2023/06/28 08:57:41;;;;;;;;;;;;;;;-147.27;100.00;65176.34;5070912;28;19917;-56
2023/06/28 09:00:10;;;;;;;;;;;;;;;-147.27;100.00;65176.34;5055462;28;19913;-58
2023/06/28 09:02:36;;;;;;;;;;;;;;;-147.27;100.00;65176.34;5055276;28;19917;-56
2023/06/28 09:05:03;;;;;;;;;;;;;;;-147.27;100.00;65176.34;5055154;28;19928;-55
2023/06/28 09:07:30;;;;;;;;;;;;;;;-147.27;100.00;65176.34;5055240;28;19920;-55
2023/06/28 09:09:56;;;;;;;;;;;;;;;-147.27;100.00;65176.34;5055361;28;19921;-57
2023/06/28 09:12:22;;;;;;;;;;;;;;;-147.27;100.00;65176.34;5055102;28;19984;-55
2023/06/28 09:14:48;;;;;;;;;;;;;;;-147.27;100.00;65176.34;5054990;28;19921;-53
2023/06/28 09:17:14;;;;;;;;;;;;;;;-147.27;100.00;65176.34;5058727;28;19912;-56
2023/06/28 09:19:39;;;;;;;;;;;;;;;-147.27;100.00;65176.34;5055969;28;19917;-57
2023/06/28 09:22:08;;;;;;;;;;;;;;;-147.27;100.00;65176.34;5070716;28;19973;-59
2023/06/28 09:24:35;;;;;;;;;;;;;;;-147.27;100.00;65176.34;5054602;28;19917;-58
2023/06/28 09:27:04;;;;;;;;;;;;;;;-147.27;100.00;65176.34;5054271;28;19921;-58
2023/06/28 09:29:30;;;;;;;;;;;;;;;-147.27;100.00;65176.34;5055760;28;19921;-57
2023/06/28 09:31:55;;;;;;;;;;;;;;;-147.27;100.00;65176.34;5059149;28;19935;-56
2023/06/28 09:34:25;;;;;;;;;;;;;;;-147.27;100.00;65176.34;5056031;28;20458;-56
2023/06/28 09:36:51;;;;;;;;;;;;;;;-147.27;100.00;65176.34;5054450;28;19921;-57
2023/06/28 09:39:16;;;;;;;;;;;;;;;-147.27;100.00;65176.34;5054448;28;19921;-54
2023/06/28 09:41:42;;;;;;;;;;;;;;;-147.27;100.00;65176.34;5058020;28;19921;-57
2023/06/28 09:44:11;;;;;;;;;;;;;;;-147.27;100.00;65176.34;5054732;28;19944;-57
2023/06/28 09:46:44;;;;;;;;;;;;;;;-147.27;100.00;65176.34;5056310;28;19984;-57
2023/06/28 09:49:20;;;;;;;;;;;;;;;-147.27;100.00;65176.34;5063997;28;19953;-57
2023/06/28 09:51:54;;;;;;;;;;;;;;;-147.27;100.00;65176.34;5053978;28;19921;-57
2023/06/28 09:54:20;;;;;;;;;;;;;;;-147.27;100.00;65176.34;5057891;28;19917;-58
2023/06/28 09:56:45;;;;;;;;;;;;;;;-147.27;100.00;65176.34;5054475;28;19924;-56
2023/06/28 09:59:11;;;;;;;;;;;;;;;-147.27;100.00;65176.34;5054537;28;20608;-55
2023/06/28 10:01:39;;;;;;;;;;;;;;;-147.27;100.00;65176.34;5058622;28;19934;-58
2023/06/28 10:04:07;;;;;;;;;;;;;;;-147.27;100.00;65176.34;5075286;28;19928;-58
2023/06/28 10:06:33;;;;;;;;;;;;;;;-147.27;100.00;65176.34;5075057;28;19917;-56
2023/06/28 10:08:59;;;;;;;;;;;;;;;-147.27;100.00;65176.34;5080382;28;19939;-53
2023/06/28 10:11:28;;;;;;;;;;;;;;;-147.27;100.00;65176.34;5082364;28;19921;-54
2023/06/28 10:13:54;;;;;;;;;;;;;;;-147.27;100.00;65176.34;5074501;28;19952;-56
2023/06/28 10:16:23;;;;;;;;;;;;;;;-147.27;100.00;65176.34;5074175;28;19917;-58
2023/06/28 10:18:49;;;;;;;;;;;;;;;-147.27;100.00;65176.34;5074592;28;19991;-59
2023/06/28 10:21:15;;;;;;;;;;;;;;;-147.27;100.00;65176.34;5073997;28;19921;-58
2023/06/28 10:23:40;;;;;;;;;;;;;;;-147.27;100.00;65176.34;5074390;28;19917;-56
2023/06/28 10:26:07;;;;;;;;;;;;;;;-147.27;100.00;65176.34;5082182;28;19916;-59
2023/06/28 10:28:34;;;;;;;;;;;;;;;-147.27;100.00;65176.34;5079301;28;19917;-56
2023/06/28 10:31:00;;;;;;;;;;;;;;;-147.27;100.00;65176.34;5080791;28;19921;-57
2023/06/28 10:33:27;;;;;;;;;;;;;;;-147.27;100.00;65176.34;5077991;28;19976;-57
2023/06/28 10:35:55;;;;;;;;;;;;;;;-147.27;100.00;65176.34;5082155;28;19925;-55
2023/06/28 10:38:23;;;;;;;;;;;;;;;-147.27;100.00;65176.34;5077310;28;19975;-56
2023/06/28 10:40:48;;;;;;;;;;;;;;;-147.27;100.00;65176.34;5082075;28;19927;-55
2023/06/28 10:43:23;;;;;;;;;;;;;;;-147.27;100.00;65176.34;5077132;28;19939;-57
2023/06/28 10:45:49;;;;;;;;;;;;;;;-147.27;100.00;65176.34;5080360;28;19924;-57
2023/06/28 10:48:18;;;;;;;;;;;;;;;-147.27;100.00;65176.34;5087128;28;19972;-57
2023/06/28 10:50:43;;;;;;;;;;;;;;;-147.27;100.00;65176.34;5085198;28;19924;-57
2023/06/28 10:53:23;;;;;;;;;;;;;;;-147.27;100.00;65176.34;5079482;28;19920;-57
2023/06/28 10:56:03;;;;;;;;;;;;;;;-147.27;100.00;65176.34;5069461;28;19920;-58
2023/06/28 10:58:28;;;;;;;;;;;;;;;-147.27;100.00;65176.34;5078761;28;19932;-58
2023/06/28 11:00:55;;;;;;;;;;;;;;;-147.27;100.00;65176.34;5085720;28;19956;-58
2023/06/28 11:03:21;;;;;;;;;;;;;;;-147.27;100.00;65176.34;5077272;28;19947;-58
2023/06/28 11:05:55;;;;;;;;;;;;;;;-147.27;100.00;65176.34;5077084;28;19921;-57
2023/06/28 11:08:22;;;;;;;;;;;;;;;-147.27;100.00;65176.34;5080283;28;19985;-58
2023/06/28 11:10:48;;;;;;;;;;;;;;;-147.27;100.00;65176.34;5076740;28;19921;-58
2023/06/28 11:13:29;;;;;;;;;;;;;;;-147.27;100.00;65176.34;5076532;28;19928;-59
2023/06/28 11:16:03;;;;;;;;;;;;;;;-147.27;100.00;65176.34;5076940;28;19948;-55
2023/06/28 11:18:29;;;;;;;;;;;;;;;-147.27;100.00;65176.34;5076843;28;19924;-58
2023/06/28 11:20:58;;;;;;;;;;;;;;;-147.27;100.00;65176.34;5076755;28;19921;-56
2023/06/28 11:23:24;;;;;;;;;;;;;;;-147.27;100.00;65176.34;5076992;28;19921;-57
2023/06/28 11:25:56;;;;;;;;;;;;;;;-147.27;100.00;65176.34;5076752;28;19932;-56
2023/06/28 11:28:27;;;;;;;;;;;;;;;-147.27;100.00;65176.34;5084166;28;19920;-58
2023/06/28 11:30:54;;;;;;;;;;;;;;;-147.27;100.00;65176.34;5084473;28;19956;-58
2023/06/28 11:33:21;;;;;;;;;;;;;;;-147.27;100.00;65176.34;5082197;28;19943;-57
2023/06/28 11:35:47;;;;;;;;;;;;;;;-147.27;100.00;65176.34;5076243;28;19987;-56
2023/06/28 11:38:13;;;;;;;;;;;;;;;-147.27;100.00;65176.34;5069102;28;20001;-58
2023/06/28 11:40:38;;;;;;;;;;;;;;;-147.27;100.00;65176.34;5076393;28;19920;-57
2023/06/28 11:43:03;;;;;;;;;;;;;;;-147.27;100.00;65176.34;5076442;28;19916;-57
2023/06/28 11:45:31;;;;;;;;;;;;;;;-147.27;100.00;65176.34;5076353;28;19917;-58
2023/06/28 11:47:57;;;;;;;;;;;;;;;-147.27;100.00;65176.34;5076256;28;19925;-57
2023/06/28 11:50:22;;;;;;;;;;;;;;;-147.27;100.00;65176.34;5076137;28;19920;-58
2023/06/28 11:52:48;;;;;;;;;;;;;;;-147.27;100.00;65176.34;5075950;28;19928;-58
2023/06/28 11:55:14;;;;;;;;;;;;;;;-147.27;100.00;65176.34;5077359;28;19920;-57
2023/06/28 11:57:44;;;;;;;;;;;;;;;-147.27;100.00;65176.34;5083206;28;19917;-57
2023/06/28 12:00:09;;;;;;;;;;;;;;;-147.27;100.00;65176.34;5076195;28;20072;-56
2023/06/28 12:02:49;;;;;;;;;;;;;;;-147.27;100.00;65176.34;5075799;28;19923;-59
2023/06/28 12:05:17;;;;;;;;;;;;;;;-147.27;100.00;65176.34;5076599;28;19913;-57
2023/06/28 12:07:44;;;;;;;;;;;;;;;-147.27;100.00;65176.34;5079655;28;19923;-58
2023/06/28 12:10:11;;;;;;;;;;;;;;;-147.27;100.00;65176.34;5084983;28;19921;-57
2023/06/28 12:12:38;;;;;;;;;;;;;;;-147.27;100.00;65176.34;5076112;28;19932;-58
2023/06/28 12:15:05;;;;;;;;;;;;;;;-147.27;100.00;65176.34;5075816;28;19925;-58
2023/06/28 12:17:37;;;;;;;;;;;;;;;-147.27;100.00;65176.34;5075567;28;19934;-57